sensor_id;sensor_type;location;lat;lon;timestamp;pressure;altitude;pressure_sealevel;temperature;humidity
64211;BME280;50528;48.514;14.394;2023-05-02T00:00:13;93757.98;;;11.01;75.64
64211;BME280;50528;48.514;14.394;2023-05-02T00:01:07;93756.86;;;10.87;75.61
64211;BME280;50528;48.514;14.394;2023-05-02T00:01:40;93759.77;;;10.86;75.79
64211;BME280;50528;48.514;14.394;2023-05-02T00:02:14;93760.15;;;10.86;75.80
64211;BME280;50528;48.514;14.394;2023-05-02T00:02:47;93756.83;;;10.84;75.85
64211;BME280;50528;48.514;14.394;2023-05-02T00:03:21;93755.44;;;10.87;75.96
64211;BME280;50528;48.514;14.394;2023-05-02T00:03:55;93757.56;;;10.84;75.98
64211;BME280;50528;48.514;14.394;2023-05-02T00:04:28;93759.14;;;10.84;76.07
64211;BME280;50528;48.514;14.394;2023-05-02T00:05:02;93759.83;;;10.85;75.90
64211;BME280;50528;48.514;14.394;2023-05-02T00:05:35;93760.93;;;10.86;75.99
64211;BME280;50528;48.514;14.394;2023-05-02T00:06:09;93757.02;;;10.88;75.84
64211;BME280;50528;48.514;14.394;2023-05-02T00:06:43;93758.98;;;10.85;75.87
64211;BME280;50528;48.514;14.394;2023-05-02T00:07:18;93761.77;;;10.85;75.84
64211;BME280;50528;48.514;14.394;2023-05-02T00:07:52;93761.61;;;10.83;75.92
64211;BME280;50528;48.514;14.394;2023-05-02T00:08:26;93765.54;;;10.82;76.02
64211;BME280;50528;48.514;14.394;2023-05-02T00:08:59;93766.55;;;10.79;76.09
64211;BME280;50528;48.514;14.394;2023-05-02T00:09:33;93764.52;;;10.81;76.08
64211;BME280;50528;48.514;14.394;2023-05-02T00:10:06;93766.79;;;10.80;76.02
64211;BME280;50528;48.514;14.394;2023-05-02T00:10:40;93763.34;;;10.73;76.46
64211;BME280;50528;48.514;14.394;2023-05-02T00:11:13;93765.59;;;10.71;76.31
64211;BME280;50528;48.514;14.394;2023-05-02T00:11:49;93765.55;;;10.71;76.51
64211;BME280;50528;48.514;14.394;2023-05-02T00:12:22;93761.77;;;10.66;76.49
64211;BME280;50528;48.514;14.394;2023-05-02T00:12:59;93765.73;;;10.70;76.70
64211;BME280;50528;48.514;14.394;2023-05-02T00:13:32;93767.55;;;10.73;76.53
64211;BME280;50528;48.514;14.394;2023-05-02T00:14:05;93766.79;;;10.69;76.72
64211;BME280;50528;48.514;14.394;2023-05-02T00:14:39;93768.27;;;10.71;76.61
64211;BME280;50528;48.514;14.394;2023-05-02T00:15:16;93764.70;;;10.66;76.51
64211;BME280;50528;48.514;14.394;2023-05-02T00:15:52;93768.98;;;10.66;76.60
64211;BME280;50528;48.514;14.394;2023-05-02T00:16:25;93775.33;;;10.65;76.78
64211;BME280;50528;48.514;14.394;2023-05-02T00:16:59;93770.64;;;10.71;76.89
64211;BME280;50528;48.514;14.394;2023-05-02T00:17:32;93771.06;;;10.77;76.56
64211;BME280;50528;48.514;14.394;2023-05-02T00:18:06;93773.23;;;10.78;76.35
64211;BME280;50528;48.514;14.394;2023-05-02T00:18:39;93774.79;;;10.71;76.55
64211;BME280;50528;48.514;14.394;2023-05-02T00:19:12;93774.33;;;10.71;76.54
64211;BME280;50528;48.514;14.394;2023-05-02T00:19:46;93775.91;;;10.61;76.73
64211;BME280;50528;48.514;14.394;2023-05-02T00:20:20;93775.33;;;10.56;76.89
64211;BME280;50528;48.514;14.394;2023-05-02T00:20:54;93778.65;;;10.57;77.05
64211;BME280;50528;48.514;14.394;2023-05-02T00:21:28;93777.10;;;10.59;77.08
64211;BME280;50528;48.514;14.394;2023-05-02T00:22:01;93781.34;;;10.58;76.97
64211;BME280;50528;48.514;14.394;2023-05-02T00:22:35;93779.81;;;10.58;77.27
64211;BME280;50528;48.514;14.394;2023-05-02T00:23:08;93779.48;;;10.62;77.05
64211;BME280;50528;48.514;14.394;2023-05-02T00:23:44;93779.79;;;10.60;76.98
64211;BME280;50528;48.514;14.394;2023-05-02T00:24:17;93769.48;;;10.53;77.03
64211;BME280;50528;48.514;14.394;2023-05-02T00:24:55;93778.46;;;10.59;77.03
64211;BME280;50528;48.514;14.394;2023-05-02T00:25:29;93779.80;;;10.57;76.88
64211;BME280;50528;48.514;14.394;2023-05-02T00:26:07;93780.34;;;10.58;77.04
64211;BME280;50528;48.514;14.394;2023-05-02T00:26:41;93781.15;;;10.64;76.87
64211;BME280;50528;48.514;14.394;2023-05-02T00:27:14;93780.16;;;10.61;76.78
64211;BME280;50528;48.514;14.394;2023-05-02T00:27:48;93781.16;;;10.59;76.82
64211;BME280;50528;48.514;14.394;2023-05-02T00:28:23;93778.47;;;10.59;76.88
64211;BME280;50528;48.514;14.394;2023-05-02T00:28:58;93776.00;;;10.60;76.89
64211;BME280;50528;48.514;14.394;2023-05-02T00:29:32;93774.50;;;10.62;76.85
64211;BME280;50528;48.514;14.394;2023-05-02T00:30:06;93775.27;;;10.65;77.03
64211;BME280;50528;48.514;14.394;2023-05-02T00:30:44;93777.76;;;10.68;77.07
64211;BME280;50528;48.514;14.394;2023-05-02T00:31:17;93778.00;;;10.71;76.99
64211;BME280;50528;48.514;14.394;2023-05-02T00:31:51;93774.11;;;10.70;76.84
64211;BME280;50528;48.514;14.394;2023-05-02T00:32:25;93781.01;;;10.71;76.71
64211;BME280;50528;48.514;14.394;2023-05-02T00:32:59;93779.21;;;10.72;76.71
64211;BME280;50528;48.514;14.394;2023-05-02T00:33:32;93774.67;;;10.72;76.67
64211;BME280;50528;48.514;14.394;2023-05-02T00:34:06;93774.98;;;10.74;76.78
64211;BME280;50528;48.514;14.394;2023-05-02T00:34:39;93773.26;;;10.75;76.64
64211;BME280;50528;48.514;14.394;2023-05-02T00:35:13;93770.95;;;10.76;76.59
64211;BME280;50528;48.514;14.394;2023-05-02T00:35:46;93771.38;;;10.77;76.57
64211;BME280;50528;48.514;14.394;2023-05-02T00:36:19;93770.60;;;10.80;76.54
64211;BME280;50528;48.514;14.394;2023-05-02T00:36:52;93774.38;;;10.82;76.60
64211;BME280;50528;48.514;14.394;2023-05-02T00:37:26;93777.65;;;10.84;76.51
64211;BME280;50528;48.514;14.394;2023-05-02T00:38:00;93774.60;;;10.85;76.51
64211;BME280;50528;48.514;14.394;2023-05-02T00:38:33;93775.45;;;10.85;76.61
64211;BME280;50528;48.514;14.394;2023-05-02T00:39:07;93776.94;;;10.87;76.55
64211;BME280;50528;48.514;14.394;2023-05-02T00:39:40;93777.27;;;10.87;76.48
64211;BME280;50528;48.514;14.394;2023-05-02T00:40:13;93772.95;;;10.88;76.48
64211;BME280;50528;48.514;14.394;2023-05-02T00:40:50;93771.65;;;10.89;76.46
64211;BME280;50528;48.514;14.394;2023-05-02T00:41:25;93773.86;;;10.90;76.40
64211;BME280;50528;48.514;14.394;2023-05-02T00:41:58;93777.64;;;10.89;76.11
64211;BME280;50528;48.514;14.394;2023-05-02T00:42:32;93774.02;;;10.89;76.12
64211;BME280;50528;48.514;14.394;2023-05-02T00:43:08;93777.80;;;10.90;76.08
64211;BME280;50528;48.514;14.394;2023-05-02T00:43:41;93773.48;;;10.90;76.14
64211;BME280;50528;48.514;14.394;2023-05-02T00:44:15;93778.14;;;10.92;76.07
64211;BME280;50528;48.514;14.394;2023-05-02T00:44:48;93775.68;;;10.92;76.15
64211;BME280;50528;48.514;14.394;2023-05-02T00:45:22;93777.91;;;10.96;75.97
64211;BME280;50528;48.514;14.394;2023-05-02T00:45:55;93778.50;;;10.97;75.94
64211;BME280;50528;48.514;14.394;2023-05-02T00:46:28;93776.48;;;10.99;75.88
64211;BME280;50528;48.514;14.394;2023-05-02T00:47:02;93779.23;;;11.01;75.78
64211;BME280;50528;48.514;14.394;2023-05-02T00:47:36;93778.50;;;11.01;75.73
64211;BME280;50528;48.514;14.394;2023-05-02T00:48:09;93779.38;;;11.02;75.86
64211;BME280;50528;48.514;14.394;2023-05-02T00:48:43;93781.70;;;11.02;75.75
64211;BME280;50528;48.514;14.394;2023-05-02T00:49:18;93778.08;;;11.03;75.76
64211;BME280;50528;48.514;14.394;2023-05-02T00:49:51;93780.61;;;11.04;75.82
64211;BME280;50528;48.514;14.394;2023-05-02T00:50:26;93779.41;;;11.05;75.67
64211;BME280;50528;48.514;14.394;2023-05-02T00:51:03;93783.93;;;11.05;75.79
64211;BME280;50528;48.514;14.394;2023-05-02T00:51:40;93784.20;;;11.05;75.67
64211;BME280;50528;48.514;14.394;2023-05-02T00:52:14;93784.42;;;11.06;75.69
64211;BME280;50528;48.514;14.394;2023-05-02T00:52:47;93785.74;;;11.07;75.68
64211;BME280;50528;48.514;14.394;2023-05-02T00:53:21;93784.20;;;11.06;75.67
64211;BME280;50528;48.514;14.394;2023-05-02T00:53:55;93783.64;;;11.09;75.63
64211;BME280;50528;48.514;14.394;2023-05-02T00:54:30;93786.29;;;11.10;75.74
64211;BME280;50528;48.514;14.394;2023-05-02T00:55:03;93787.49;;;11.10;75.67
64211;BME280;50528;48.514;14.394;2023-05-02T00:55:38;93787.09;;;11.11;75.66
64211;BME280;50528;48.514;14.394;2023-05-02T00:56:11;93784.05;;;11.12;75.77
64211;BME280;50528;48.514;14.394;2023-05-02T00:56:44;93784.63;;;11.12;75.69
64211;BME280;50528;48.514;14.394;2023-05-02T00:57:18;93786.05;;;11.13;75.71
64211;BME280;50528;48.514;14.394;2023-05-02T00:57:52;93785.79;;;11.13;75.68
64211;BME280;50528;48.514;14.394;2023-05-02T00:58:25;93782.85;;;11.13;75.76
64211;BME280;50528;48.514;14.394;2023-05-02T00:58:59;93779.95;;;11.14;75.69
64211;BME280;50528;48.514;14.394;2023-05-02T00:59:34;93782.38;;;11.15;75.73
64211;BME280;50528;48.514;14.394;2023-05-02T01:00:09;93786.11;;;11.15;75.65
64211;BME280;50528;48.514;14.394;2023-05-02T01:00:58;93783.53;;;11.15;75.71
64211;BME280;50528;48.514;14.394;2023-05-02T01:02:09;93786.58;;;11.13;75.67
64211;BME280;50528;48.514;14.394;2023-05-02T01:02:50;93784.01;;;11.07;75.64
64211;BME280;50528;48.514;14.394;2023-05-02T01:03:58;93784.75;;;11.07;75.71
64211;BME280;50528;48.514;14.394;2023-05-02T01:05:14;93786.20;;;11.05;75.74
64211;BME280;50528;48.514;14.394;2023-05-02T01:07:18;93788.44;;;10.96;75.93
64211;BME280;50528;48.514;14.394;2023-05-02T01:10:19;93791.66;;;10.92;75.89
64211;BME280;50528;48.514;14.394;2023-05-02T01:11:12;93793.05;;;10.88;76.02
64211;BME280;50528;48.514;14.394;2023-05-02T01:11:52;93792.38;;;10.90;76.13
64211;BME280;50528;48.514;14.394;2023-05-02T01:12:42;93793.21;;;10.91;76.09
64211;BME280;50528;48.514;14.394;2023-05-02T01:13:28;93791.80;;;10.91;76.26
64211;BME280;50528;48.514;14.394;2023-05-02T01:14:07;93796.69;;;10.91;76.26
64211;BME280;50528;48.514;14.394;2023-05-02T01:14:43;93798.83;;;10.93;76.41
64211;BME280;50528;48.514;14.394;2023-05-02T01:15:20;93799.91;;;10.99;76.28
64211;BME280;50528;48.514;14.394;2023-05-02T01:15:55;93800.46;;;10.96;76.39
64211;BME280;50528;48.514;14.394;2023-05-02T01:16:31;93799.62;;;10.94;76.45
64211;BME280;50528;48.514;14.394;2023-05-02T01:17:09;93796.45;;;10.93;76.54
64211;BME280;50528;48.514;14.394;2023-05-02T01:17:44;93798.65;;;10.92;76.63
64211;BME280;50528;48.514;14.394;2023-05-02T01:18:21;93796.45;;;10.93;76.55
64211;BME280;50528;48.514;14.394;2023-05-02T01:18:57;93799.09;;;10.94;76.73
64211;BME280;50528;48.514;14.394;2023-05-02T01:19:34;93796.70;;;11.04;76.66
64211;BME280;50528;48.514;14.394;2023-05-02T01:20:13;93797.13;;;10.98;76.80
64211;BME280;50528;48.514;14.394;2023-05-02T01:20:52;93797.58;;;10.94;76.75
64211;BME280;50528;48.514;14.394;2023-05-02T01:21:29;93801.09;;;10.94;76.79
64211;BME280;50528;48.514;14.394;2023-05-02T01:22:07;93798.89;;;10.94;76.86
64211;BME280;50528;48.514;14.394;2023-05-02T01:22:42;93798.85;;;10.95;76.92
64211;BME280;50528;48.514;14.394;2023-05-02T01:24:24;93787.77;;;10.91;76.90
64211;BME280;50528;48.514;14.394;2023-05-02T01:25:59;93799.77;;;10.99;76.96
64211;BME280;50528;48.514;14.394;2023-05-02T01:27:46;93803.05;;;10.97;76.92
64211;BME280;50528;48.514;14.394;2023-05-02T01:29:35;93799.79;;;10.95;77.13
64211;BME280;50528;48.514;14.394;2023-05-02T01:30:10;93797.59;;;10.97;77.31
64211;BME280;50528;48.514;14.394;2023-05-02T01:30:45;93800.64;;;10.95;77.50
64211;BME280;50528;48.514;14.394;2023-05-02T01:31:19;93801.46;;;10.93;77.29
64211;BME280;50528;48.514;14.394;2023-05-02T01:31:55;93800.40;;;10.93;77.27
64211;BME280;50528;48.514;14.394;2023-05-02T01:32:32;93799.16;;;10.95;77.50
64211;BME280;50528;48.514;14.394;2023-05-02T01:33:09;93800.00;;;10.96;77.53
64211;BME280;50528;48.514;14.394;2023-05-02T01:33:44;93799.90;;;10.97;77.58
64211;BME280;50528;48.514;14.394;2023-05-02T01:34:19;93800.66;;;10.99;77.70
64211;BME280;50528;48.514;14.394;2023-05-02T01:34:57;93802.15;;;11.01;77.62
64211;BME280;50528;48.514;14.394;2023-05-02T01:35:34;93801.91;;;10.98;77.63
64211;BME280;50528;48.514;14.394;2023-05-02T01:36:12;93800.27;;;10.96;77.62
64211;BME280;50528;48.514;14.394;2023-05-02T01:36:47;93796.84;;;10.95;77.60
64211;BME280;50528;48.514;14.394;2023-05-02T01:37:23;93804.07;;;10.98;77.68
64211;BME280;50528;48.514;14.394;2023-05-02T01:37:58;93802.86;;;10.99;77.79
64211;BME280;50528;48.514;14.394;2023-05-02T01:38:34;93804.19;;;10.99;77.71
64211;BME280;50528;48.514;14.394;2023-05-02T01:39:13;93802.59;;;11.01;77.79
64211;BME280;50528;48.514;14.394;2023-05-02T01:39:48;93804.10;;;11.03;77.86
64211;BME280;50528;48.514;14.394;2023-05-02T01:40:23;93805.52;;;11.03;77.98
64211;BME280;50528;48.514;14.394;2023-05-02T01:40:59;93803.45;;;11.01;77.80
64211;BME280;50528;48.514;14.394;2023-05-02T01:41:38;93806.88;;;11.02;77.87
64211;BME280;50528;48.514;14.394;2023-05-02T01:42:13;93802.02;;;10.98;78.01
64211;BME280;50528;48.514;14.394;2023-05-02T01:42:49;93806.52;;;11.03;77.95
64211;BME280;50528;48.514;14.394;2023-05-02T01:43:23;93806.67;;;11.02;77.90
64211;BME280;50528;48.514;14.394;2023-05-02T01:43:59;93811.05;;;11.03;77.90
64211;BME280;50528;48.514;14.394;2023-05-02T01:44:35;93810.39;;;11.06;77.99
64211;BME280;50528;48.514;14.394;2023-05-02T01:45:10;93810.63;;;11.09;78.03
64211;BME280;50528;48.514;14.394;2023-05-02T01:45:46;93802.77;;;11.05;77.88
64211;BME280;50528;48.514;14.394;2023-05-02T01:46:21;93804.58;;;11.02;77.80
64211;BME280;50528;48.514;14.394;2023-05-02T01:46:55;93805.68;;;11.02;77.99
64211;BME280;50528;48.514;14.394;2023-05-02T01:47:32;93805.42;;;11.03;77.92
64211;BME280;50528;48.514;14.394;2023-05-02T01:48:09;93802.73;;;11.00;77.82
64211;BME280;50528;48.514;14.394;2023-05-02T01:48:44;93803.33;;;11.02;77.77
64211;BME280;50528;48.514;14.394;2023-05-02T01:51:03;93801.52;;;10.90;77.89
64211;BME280;50528;48.514;14.394;2023-05-02T01:51:45;93803.48;;;10.85;77.77
64211;BME280;50528;48.514;14.394;2023-05-02T01:52:20;93805.99;;;10.85;77.78
64211;BME280;50528;48.514;14.394;2023-05-02T01:52:54;93802.94;;;10.90;77.92
64211;BME280;50528;48.514;14.394;2023-05-02T01:53:27;93803.40;;;10.87;77.83
64211;BME280;50528;48.514;14.394;2023-05-02T01:54:04;93804.91;;;10.86;78.00
64211;BME280;50528;48.514;14.394;2023-05-02T01:54:39;93805.66;;;10.87;77.95
64211;BME280;50528;48.514;14.394;2023-05-02T01:55:14;93803.22;;;10.85;78.16
64211;BME280;50528;48.514;14.394;2023-05-02T01:55:48;93798.67;;;10.79;78.29
64211;BME280;50528;48.514;14.394;2023-05-02T01:56:21;93803.52;;;10.79;78.32
64211;BME280;50528;48.514;14.394;2023-05-02T01:56:57;93804.06;;;10.75;78.35
64211;BME280;50528;48.514;14.394;2023-05-02T01:57:30;93802.55;;;10.73;78.41
64211;BME280;50528;48.514;14.394;2023-05-02T01:58:03;93803.85;;;10.76;78.58
64211;BME280;50528;48.514;14.394;2023-05-02T01:58:37;93800.14;;;10.77;78.55
64211;BME280;50528;48.514;14.394;2023-05-02T01:59:13;93803.09;;;10.79;78.57
64211;BME280;50528;48.514;14.394;2023-05-02T01:59:49;93801.41;;;10.73;78.64
64211;BME280;50528;48.514;14.394;2023-05-02T02:00:24;93800.83;;;10.71;78.94
64211;BME280;50528;48.514;14.394;2023-05-02T02:00:59;93800.67;;;10.72;78.85
64211;BME280;50528;48.514;14.394;2023-05-02T02:01:34;93803.67;;;10.68;78.76
64211;BME280;50528;48.514;14.394;2023-05-02T02:02:07;93796.52;;;10.68;78.95
64211;BME280;50528;48.514;14.394;2023-05-02T02:02:44;93798.88;;;10.67;78.96
64211;BME280;50528;48.514;14.394;2023-05-02T02:03:18;93800.77;;;10.65;78.94
64211;BME280;50528;48.514;14.394;2023-05-02T02:03:51;93800.70;;;10.64;79.01
64211;BME280;50528;48.514;14.394;2023-05-02T02:04:24;93802.63;;;10.63;79.06
64211;BME280;50528;48.514;14.394;2023-05-02T02:04:58;93801.21;;;10.63;79.16
64211;BME280;50528;48.514;14.394;2023-05-02T02:05:31;93801.25;;;10.62;79.10
64211;BME280;50528;48.514;14.394;2023-05-02T02:06:05;93797.86;;;10.64;79.24
64211;BME280;50528;48.514;14.394;2023-05-02T02:06:40;93798.36;;;10.62;79.21
64211;BME280;50528;48.514;14.394;2023-05-02T02:07:14;93804.79;;;10.63;79.26
64211;BME280;50528;48.514;14.394;2023-05-02T02:07:46;93804.45;;;10.66;79.39
64211;BME280;50528;48.514;14.394;2023-05-02T02:08:20;93803.39;;;10.64;79.26
64211;BME280;50528;48.514;14.394;2023-05-02T02:08:52;93801.68;;;10.69;79.20
64211;BME280;50528;48.514;14.394;2023-05-02T02:09:25;93801.63;;;10.68;79.37
64211;BME280;50528;48.514;14.394;2023-05-02T02:09:58;93804.17;;;10.71;79.39
64211;BME280;50528;48.514;14.394;2023-05-02T02:10:38;93804.04;;;10.68;79.43
64211;BME280;50528;48.514;14.394;2023-05-02T02:11:12;93803.09;;;10.65;79.49
64211;BME280;50528;48.514;14.394;2023-05-02T02:12:02;93806.70;;;10.65;79.56
64211;BME280;50528;48.514;14.394;2023-05-02T02:12:42;93806.41;;;10.64;79.64
64211;BME280;50528;48.514;14.394;2023-05-02T02:13:18;93806.44;;;10.66;79.66
64211;BME280;50528;48.514;14.394;2023-05-02T02:14:05;93808.17;;;10.64;80.04
64211;BME280;50528;48.514;14.394;2023-05-02T02:14:42;93810.11;;;10.64;79.74
64211;BME280;50528;48.514;14.394;2023-05-02T02:15:49;93811.17;;;10.65;79.89
64211;BME280;50528;48.514;14.394;2023-05-02T02:16:24;93808.86;;;10.65;79.84
64211;BME280;50528;48.514;14.394;2023-05-02T02:17:00;93808.71;;;10.67;79.92
64211;BME280;50528;48.514;14.394;2023-05-02T02:17:39;93809.08;;;10.66;79.86
64211;BME280;50528;48.514;14.394;2023-05-02T02:18:16;93810.48;;;10.65;80.07
64211;BME280;50528;48.514;14.394;2023-05-02T02:18:49;93807.91;;;10.65;80.00
64211;BME280;50528;48.514;14.394;2023-05-02T02:19:23;93807.45;;;10.66;80.04
64211;BME280;50528;48.514;14.394;2023-05-02T02:19:57;93808.24;;;10.68;80.00
64211;BME280;50528;48.514;14.394;2023-05-02T02:20:33;93808.27;;;10.69;80.03
64211;BME280;50528;48.514;14.394;2023-05-02T02:21:08;93813.02;;;10.71;80.11
64211;BME280;50528;48.514;14.394;2023-05-02T02:21:43;93808.91;;;10.71;80.01
64211;BME280;50528;48.514;14.394;2023-05-02T02:22:18;93813.33;;;10.72;79.89
64211;BME280;50528;48.514;14.394;2023-05-02T02:22:52;93811.04;;;10.74;79.95
64211;BME280;50528;48.514;14.394;2023-05-02T02:23:25;93809.59;;;10.75;80.07
64211;BME280;50528;48.514;14.394;2023-05-02T02:24:02;93810.60;;;10.76;80.06
64211;BME280;50528;48.514;14.394;2023-05-02T02:24:36;93810.08;;;10.76;80.08
64211;BME280;50528;48.514;14.394;2023-05-02T02:25:12;93811.02;;;10.79;80.07
64211;BME280;50528;48.514;14.394;2023-05-02T02:25:48;93809.80;;;10.77;79.86
64211;BME280;50528;48.514;14.394;2023-05-02T02:26:21;93811.34;;;10.76;79.92
64211;BME280;50528;48.514;14.394;2023-05-02T02:26:54;93811.81;;;10.76;79.86
64211;BME280;50528;48.514;14.394;2023-05-02T02:27:26;93814.58;;;10.81;79.98
64211;BME280;50528;48.514;14.394;2023-05-02T02:27:59;93810.15;;;10.85;79.69
64211;BME280;50528;48.514;14.394;2023-05-02T02:28:33;93811.99;;;10.79;79.74
64211;BME280;50528;48.514;14.394;2023-05-02T02:29:05;93810.55;;;10.79;79.84
64211;BME280;50528;48.514;14.394;2023-05-02T02:29:37;93810.58;;;10.81;79.80
64211;BME280;50528;48.514;14.394;2023-05-02T02:30:10;93810.31;;;10.80;79.78
64211;BME280;50528;48.514;14.394;2023-05-02T02:30:43;93814.42;;;10.81;79.86
64211;BME280;50528;48.514;14.394;2023-05-02T02:31:15;93811.84;;;10.80;79.79
64211;BME280;50528;48.514;14.394;2023-05-02T02:31:47;93813.73;;;10.81;79.77
64211;BME280;50528;48.514;14.394;2023-05-02T02:32:19;93813.66;;;10.82;79.77
64211;BME280;50528;48.514;14.394;2023-05-02T02:32:51;93809.23;;;10.81;79.84
64211;BME280;50528;48.514;14.394;2023-05-02T02:33:28;93813.66;;;10.83;79.67
64211;BME280;50528;48.514;14.394;2023-05-02T02:34:02;93814.35;;;10.83;79.71
64211;BME280;50528;48.514;14.394;2023-05-02T02:34:35;93816.66;;;10.84;79.69
64211;BME280;50528;48.514;14.394;2023-05-02T02:35:08;93817.87;;;10.85;79.71
64211;BME280;50528;48.514;14.394;2023-05-02T02:35:42;93814.88;;;10.85;79.73
64211;BME280;50528;48.514;14.394;2023-05-02T02:36:23;93817.83;;;10.86;79.66
64211;BME280;50528;48.514;14.394;2023-05-02T02:37:08;93817.08;;;10.85;79.70
64211;BME280;50528;48.514;14.394;2023-05-02T02:37:50;93817.66;;;10.82;79.72
64211;BME280;50528;48.514;14.394;2023-05-02T02:38:31;93809.71;;;10.77;79.65
64211;BME280;50528;48.514;14.394;2023-05-02T02:40:45;93816.92;;;10.84;79.54
64211;BME280;50528;48.514;14.394;2023-05-02T02:41:23;93816.70;;;10.81;79.74
64211;BME280;50528;48.514;14.394;2023-05-02T02:42:13;93815.55;;;10.82;79.63
64211;BME280;50528;48.514;14.394;2023-05-02T02:46:20;93815.66;;;10.88;79.51
64211;BME280;50528;48.514;14.394;2023-05-02T02:47:10;93822.75;;;10.87;79.49
64211;BME280;50528;48.514;14.394;2023-05-02T02:48:18;93824.04;;;10.85;79.49
64211;BME280;50528;48.514;14.394;2023-05-02T02:49:32;93823.92;;;10.84;79.48
64211;BME280;50528;48.514;14.394;2023-05-02T02:52:44;93820.92;;;10.79;79.44
64211;BME280;50528;48.514;14.394;2023-05-02T02:53:32;93819.32;;;10.76;79.51
64211;BME280;50528;48.514;14.394;2023-05-02T02:54:43;93809.91;;;10.72;79.47
64211;BME280;50528;48.514;14.394;2023-05-02T02:55:19;93818.25;;;10.80;79.62
64211;BME280;50528;48.514;14.394;2023-05-02T02:56:05;93825.19;;;10.80;79.42
64211;BME280;50528;48.514;14.394;2023-05-02T02:56:48;93820.46;;;10.84;79.46
64211;BME280;50528;48.514;14.394;2023-05-02T02:57:41;93822.18;;;10.83;79.47
64211;BME280;50528;48.514;14.394;2023-05-02T02:58:42;93820.64;;;10.82;79.62
64211;BME280;50528;48.514;14.394;2023-05-02T02:59:31;93818.98;;;10.83;79.61
64211;BME280;50528;48.514;14.394;2023-05-02T03:00:11;93822.55;;;10.85;79.65
64211;BME280;50528;48.514;14.394;2023-05-02T03:00:45;93821.92;;;10.83;79.78
64211;BME280;50528;48.514;14.394;2023-05-02T03:01:23;93818.42;;;10.81;79.67
64211;BME280;50528;48.514;14.394;2023-05-02T03:02:07;93821.56;;;10.85;79.81
64211;BME280;50528;48.514;14.394;2023-05-02T03:02:41;93817.11;;;10.87;79.70
64211;BME280;50528;48.514;14.394;2023-05-02T03:03:14;93814.63;;;10.89;79.85
64211;BME280;50528;48.514;14.394;2023-05-02T03:03:48;93814.30;;;10.88;79.97
64211;BME280;50528;48.514;14.394;2023-05-02T03:04:24;93817.40;;;10.88;79.96
64211;BME280;50528;48.514;14.394;2023-05-02T03:04:59;93822.20;;;10.87;79.92
64211;BME280;50528;48.514;14.394;2023-05-02T03:05:34;93818.46;;;10.86;80.03
64211;BME280;50528;48.514;14.394;2023-05-02T03:06:07;93818.83;;;10.86;80.01
64211;BME280;50528;48.514;14.394;2023-05-02T03:06:39;93816.77;;;10.88;80.07
64211;BME280;50528;48.514;14.394;2023-05-02T03:07:12;93816.96;;;10.88;79.98
64211;BME280;50528;48.514;14.394;2023-05-02T03:07:44;93821.23;;;10.89;80.10
64211;BME280;50528;48.514;14.394;2023-05-02T03:08:16;93817.14;;;10.90;80.18
64211;BME280;50528;48.514;14.394;2023-05-02T03:08:49;93806.09;;;10.82;80.12
64211;BME280;50528;48.514;14.394;2023-05-02T03:09:21;93814.03;;;10.89;80.16
64211;BME280;50528;48.514;14.394;2023-05-02T03:09:54;93817.14;;;10.90;80.12
64211;BME280;50528;48.514;14.394;2023-05-02T03:10:26;93815.87;;;10.90;80.16
64211;BME280;50528;48.514;14.394;2023-05-02T03:10:58;93817.88;;;10.90;80.25
64211;BME280;50528;48.514;14.394;2023-05-02T03:11:30;93818.81;;;10.90;80.20
64211;BME280;50528;48.514;14.394;2023-05-02T03:12:03;93818.51;;;10.94;80.32
64211;BME280;50528;48.514;14.394;2023-05-02T03:12:35;93815.88;;;10.91;80.15
64211;BME280;50528;48.514;14.394;2023-05-02T03:13:07;93819.41;;;10.92;80.24
64211;BME280;50528;48.514;14.394;2023-05-02T03:13:39;93820.39;;;10.93;80.37
64211;BME280;50528;48.514;14.394;2023-05-02T03:14:12;93820.02;;;10.99;80.46
64211;BME280;50528;48.514;14.394;2023-05-02T03:14:44;93820.24;;;11.00;80.30
64211;BME280;50528;48.514;14.394;2023-05-02T03:16:26;93819.73;;;10.97;80.23
64211;BME280;50528;48.514;14.394;2023-05-02T03:17:01;93820.69;;;10.93;80.03
64211;BME280;50528;48.514;14.394;2023-05-02T03:17:34;93823.98;;;10.91;80.26
64211;BME280;50528;48.514;14.394;2023-05-02T03:18:06;93825.30;;;10.91;80.32
64211;BME280;50528;48.514;14.394;2023-05-02T03:18:39;93822.55;;;10.93;80.34
64211;BME280;50528;48.514;14.394;2023-05-02T03:19:11;93825.48;;;10.99;80.44
64211;BME280;50528;48.514;14.394;2023-05-02T03:19:43;93822.29;;;11.06;80.07
64211;BME280;50528;48.514;14.394;2023-05-02T03:20:16;93825.13;;;11.00;80.07
64211;BME280;50528;48.514;14.394;2023-05-02T03:20:48;93823.23;;;10.99;80.39
64211;BME280;50528;48.514;14.394;2023-05-02T03:21:20;93820.94;;;10.97;80.26
64211;BME280;50528;48.514;14.394;2023-05-02T03:21:52;93822.79;;;10.98;80.46
64211;BME280;50528;48.514;14.394;2023-05-02T03:22:24;93823.48;;;10.98;80.43
64211;BME280;50528;48.514;14.394;2023-05-02T03:22:56;93825.25;;;10.97;80.38
64211;BME280;50528;48.514;14.394;2023-05-02T03:23:28;93825.34;;;11.00;80.52
64211;BME280;50528;48.514;14.394;2023-05-02T03:24:02;93820.05;;;11.03;80.45
64211;BME280;50528;48.514;14.394;2023-05-02T03:24:37;93826.38;;;11.05;80.40
64211;BME280;50528;48.514;14.394;2023-05-02T03:25:09;93827.29;;;11.07;80.47
64211;BME280;50528;48.514;14.394;2023-05-02T03:25:42;93828.76;;;11.06;80.41
64211;BME280;50528;48.514;14.394;2023-05-02T03:26:15;93824.83;;;11.01;80.48
64211;BME280;50528;48.514;14.394;2023-05-02T03:26:48;93824.29;;;11.00;80.51
64211;BME280;50528;48.514;14.394;2023-05-02T03:27:21;93826.69;;;10.99;80.49
64211;BME280;50528;48.514;14.394;2023-05-02T03:27:56;93825.17;;;10.99;80.63